createdAt,value
2022-12-05T00:00:55.276Z,55.10
2022-12-05T00:05:55.231Z,55.30
2022-12-05T00:10:55.154Z,53.20
2022-12-05T00:15:55.271Z,60.10
2022-12-05T00:20:55.206Z,52.30
2022-12-05T00:25:55.001Z,60.70
2022-12-05T00:30:54.964Z,54.90
2022-12-05T00:35:54.923Z,51.60
2022-12-05T00:40:54.958Z,54.80
2022-12-05T00:45:54.939Z,49.60
2022-12-05T00:50:54.836Z,56.90
2022-12-05T00:55:54.663Z,56.70
2022-12-05T01:00:54.684Z,56.70
2022-12-05T01:05:54.552Z,58.90
2022-12-05T01:10:54.510Z,52.40
2022-12-05T01:15:54.475Z,54.90
2022-12-05T01:20:54.435Z,50.10
2022-12-05T01:25:54.357Z,52.10
2022-12-05T01:30:54.323Z,50.90
2022-12-05T01:35:54.431Z,49.60
2022-12-05T01:40:54.212Z,53.30
2022-12-05T01:45:54.166Z,54.60
2022-12-05T01:50:54.071Z,51.00
2022-12-05T01:55:54.190Z,47.90
2022-12-05T02:00:54.017Z,53.10
2022-12-05T02:05:53.957Z,52.60
2022-12-05T02:10:53.859Z,51.90
2022-12-05T02:15:56.975Z,57.90
2022-12-05T02:20:53.765Z,48.50
2022-12-05T02:25:53.716Z,54.10
2022-12-05T02:30:53.749Z,55.00
2022-12-05T02:35:53.772Z,49.00
2022-12-05T02:40:53.558Z,47.60
2022-12-05T02:45:53.556Z,47.90
2022-12-05T02:50:53.617Z,53.50
2022-12-05T02:55:53.424Z,49.60
2022-12-05T03:00:53.576Z,50.30
2022-12-05T03:05:53.312Z,52.10
2022-12-05T03:10:53.224Z,53.80
2022-12-05T03:15:53.223Z,52.10
2022-12-05T03:20:53.187Z,51.50
2022-12-05T03:25:53.088Z,51.30
2022-12-05T03:30:53.047Z,58.20
2022-12-05T03:35:52.959Z,58.30
2022-12-05T03:40:52.908Z,55.00
2022-12-05T03:45:52.924Z,58.30
2022-12-05T03:50:52.824Z,48.50
2022-12-05T03:55:52.915Z,58.50
2022-12-05T04:00:52.869Z,54.90
2022-12-05T04:05:53.869Z,52.60
2022-12-05T04:10:52.581Z,52.50
2022-12-05T04:15:52.611Z,57.90
2022-12-05T04:20:52.483Z,55.10
2022-12-05T04:25:52.449Z,48.20
2022-12-05T04:30:52.402Z,56.10
2022-12-05T04:35:52.426Z,48.90
2022-12-05T04:40:53.395Z,50.20
2022-12-05T04:45:52.204Z,52.20
2022-12-05T04:50:52.262Z,51.40
2022-12-05T04:55:52.138Z,55.30
2022-12-05T05:00:52.156Z,55.50
2022-12-05T05:05:52.084Z,50.80
2022-12-05T05:10:55.487Z,43.10
2022-12-05T05:15:52.155Z,46.90
2022-12-05T05:20:51.875Z,54.20
2022-12-05T05:25:51.822Z,50.80
2022-12-05T05:30:51.758Z,46.60
2022-12-05T05:35:52.030Z,50.90
2022-12-05T05:40:51.621Z,47.90
2022-12-05T05:45:51.588Z,43.10
2022-12-05T05:50:51.539Z,40.50
2022-12-05T05:55:51.474Z,43.90
2022-12-05T06:00:51.397Z,43.30
2022-12-05T06:05:53.169Z,44.80
2022-12-05T06:10:51.321Z,46.40
2022-12-05T06:15:51.226Z,44.10
2022-12-05T06:20:52.321Z,50.10
2022-12-05T06:25:51.170Z,51.00
2022-12-05T06:30:51.072Z,50.90
2022-12-05T06:35:51.180Z,52.00
2022-12-05T06:40:51.004Z,55.60
2022-12-05T06:45:51.154Z,51.30
2022-12-05T06:50:50.859Z,50.30
2022-12-05T06:55:50.854Z,59.70
2022-12-05T07:00:50.806Z,55.30
2022-12-05T07:05:50.724Z,49.80
2022-12-05T07:10:50.671Z,61.50
2022-12-05T07:15:50.639Z,53.50
2022-12-05T07:21:11.140Z,49.80
2022-12-05T07:25:51.516Z,51.20
2022-12-05T07:30:51.484Z,57.70
2022-12-05T07:35:50.379Z,61.50
2022-12-05T07:40:50.425Z,56.40
2022-12-05T07:45:50.334Z,51.40
2022-12-05T07:50:50.259Z,52.70
2022-12-05T07:55:50.198Z,58.40
2022-12-05T08:00:50.168Z,55.60
2022-12-05T08:05:50.123Z,66.20
2022-12-05T08:10:50.158Z,50.80
2022-12-05T08:15:50.167Z,43.40
2022-12-05T08:20:50.008Z,54.90
2022-12-05T08:25:49.847Z,48.60
2022-12-05T08:30:49.880Z,48.50
2022-12-05T08:35:49.768Z,50.70
2022-12-05T08:40:49.673Z,49.50
2022-12-05T08:45:49.692Z,60.70
2022-12-05T08:50:49.692Z,45.70
2022-12-05T08:55:49.558Z,39.50
2022-12-05T09:00:49.506Z,55.00
2022-12-05T09:05:54.749Z,41.40
2022-12-05T09:10:50.565Z,38.80
2022-12-05T09:15:49.374Z,44.30
2022-12-05T09:20:49.433Z,49.20
2022-12-05T09:25:49.361Z,46.30
2022-12-05T09:30:49.235Z,46.00
2022-12-05T09:35:49.132Z,50.10
2022-12-05T09:40:49.080Z,54.60
2022-12-05T09:45:49.017Z,51.90
2022-12-05T09:50:48.923Z,39.70
2022-12-05T09:55:48.977Z,37.90
2022-12-05T10:00:48.956Z,41.80
2022-12-05T10:05:48.846Z,42.10
2022-12-05T10:10:49.883Z,31.70
2022-12-05T10:15:51.897Z,35.90
2022-12-05T10:20:49.614Z,35.00
2022-12-05T10:25:48.660Z,36.40
2022-12-05T10:30:48.569Z,41.90
2022-12-05T10:35:48.450Z,36.90
2022-12-05T10:40:48.549Z,39.70
2022-12-05T10:45:48.515Z,41.50
2022-12-05T10:50:50.375Z,33.60
2022-12-05T10:56:21.402Z,33.30
2022-12-05T11:00:50.429Z,37.70
2022-12-05T11:05:48.154Z,31.80
2022-12-05T11:10:48.065Z,31.70
2022-12-05T11:15:54.932Z,26.30
2022-12-05T11:20:48.971Z,28.10
2022-12-05T11:25:48.057Z,30.60
2022-12-05T11:30:48.996Z,29.20
2022-12-05T11:35:49.963Z,31.20
2022-12-05T11:40:47.728Z,28.90
2022-12-05T11:45:47.767Z,28.70
2022-12-05T11:50:47.662Z,24.30
2022-12-05T11:55:47.744Z,25.20
2022-12-05T12:00:47.536Z,25.30
2022-12-05T12:05:47.480Z,21.30
2022-12-05T12:10:47.465Z,19.50
2022-12-05T12:15:47.380Z,29.30
2022-12-05T12:20:47.475Z,27.40
2022-12-05T12:25:47.285Z,25.10
2022-12-05T12:30:47.355Z,22.80
2022-12-05T12:35:47.167Z,27.40
2022-12-05T12:40:47.230Z,19.10
2022-12-05T12:45:54.363Z,23.40
2022-12-05T12:50:46.995Z,22.20
2022-12-05T12:55:47.063Z,21.40
2022-12-05T13:00:46.998Z,30.90
2022-12-05T13:05:50.175Z,25.10
2022-12-05T13:10:46.876Z,25.20
2022-12-05T13:15:46.845Z,26.10
2022-12-05T13:20:46.785Z,25.10
2022-12-05T13:25:46.671Z,23.60
2022-12-05T13:30:46.579Z,24.20
2022-12-05T13:35:46.561Z,20.50
2022-12-05T13:40:46.539Z,22.10
2022-12-05T13:45:46.491Z,19.50
2022-12-05T13:50:46.431Z,27.30
2022-12-05T13:55:46.465Z,28.40
2022-12-05T14:00:46.341Z,39.40
2022-12-05T14:05:46.258Z,32.00
2022-12-05T14:10:46.215Z,29.00
2022-12-05T14:15:46.117Z,33.50
2022-12-05T14:20:46.298Z,35.10
2022-12-05T14:25:57.377Z,33.60
2022-12-05T14:30:47.227Z,32.60
2022-12-05T14:35:46.116Z,39.60
2022-12-05T14:40:46.093Z,43.40
2022-12-05T14:45:45.913Z,30.90
2022-12-05T14:50:45.843Z,26.80
2022-12-05T14:55:45.835Z,43.70
2022-12-05T15:00:48.221Z,42.20
2022-12-05T15:05:46.838Z,40.30
2022-12-05T15:10:45.509Z,34.20
2022-12-05T15:15:45.670Z,53.80
2022-12-05T15:20:45.507Z,52.60
2022-12-05T15:25:45.355Z,49.40
2022-12-05T15:30:45.373Z,42.40
2022-12-05T15:35:45.428Z,39.80
2022-12-05T15:40:45.368Z,31.40
2022-12-05T15:45:48.265Z,26.50
2022-12-05T15:50:45.199Z,20.30
2022-12-05T15:55:45.111Z,17.60
2022-12-05T16:00:45.014Z,20.70
2022-12-05T16:05:44.942Z,21.40
2022-12-05T16:10:44.888Z,20.50
2022-12-05T16:15:50.700Z,21.90
2022-12-05T16:20:45.939Z,20.20
2022-12-05T16:25:44.756Z,20.40
2022-12-05T16:30:44.826Z,23.20
2022-12-05T16:35:44.694Z,33.80
2022-12-05T16:40:44.645Z,35.60
2022-12-05T16:45:44.503Z,40.60
2022-12-05T16:50:44.455Z,44.60
2022-12-05T16:55:44.380Z,56.00
2022-12-05T17:00:44.379Z,22.10
2022-12-05T17:05:44.373Z,49.60
2022-12-05T17:10:44.292Z,20.50
2022-12-05T17:15:44.205Z,20.50
2022-12-05T17:20:44.235Z,21.20
2022-12-05T17:25:44.076Z,26.80
2022-12-05T17:30:43.992Z,19.90
2022-12-05T17:35:43.961Z,24.20
2022-12-05T17:40:43.937Z,24.60
2022-12-05T17:45:44.900Z,22.00
2022-12-05T17:50:43.879Z,18.60
2022-12-05T17:55:43.771Z,19.10
2022-12-05T18:00:43.711Z,14.00
2022-12-05T18:05:43.680Z,14.40
2022-12-05T18:10:43.661Z,21.10
2022-12-05T18:15:43.706Z,17.90
2022-12-05T18:20:43.680Z,17.80
2022-12-05T18:25:43.509Z,17.60
2022-12-05T18:30:43.441Z,17.00
2022-12-05T18:35:43.345Z,15.90
2022-12-05T18:40:43.307Z,14.90
2022-12-05T18:45:43.296Z,16.50
2022-12-05T18:50:43.148Z,14.70
2022-12-05T18:56:05.207Z,14.30
2022-12-05T19:00:44.110Z,15.90
2022-12-05T19:05:43.140Z,21.50
2022-12-05T19:10:43.054Z,19.40
2022-12-05T19:15:43.053Z,17.60
2022-12-05T19:20:48.973Z,23.80
2022-12-05T19:25:43.937Z,21.30
2022-12-05T19:30:43.673Z,21.80
2022-12-05T19:35:42.939Z,21.80
2022-12-05T19:40:42.673Z,22.40
2022-12-05T19:45:42.693Z,25.80
2022-12-05T19:50:42.518Z,27.70
2022-12-05T19:55:42.603Z,29.50
2022-12-05T20:00:42.488Z,33.40
2022-12-05T20:05:42.461Z,22.00
2022-12-05T20:10:42.842Z,38.60
2022-12-05T20:15:42.410Z,33.20
2022-12-05T20:20:42.244Z,29.90
2022-12-05T20:25:42.132Z,29.80
2022-12-05T20:30:42.130Z,24.70
2022-12-05T20:35:42.062Z,30.10
2022-12-05T20:40:42.069Z,22.30
2022-12-05T20:45:42.188Z,23.70
2022-12-05T20:50:42.115Z,27.40
2022-12-05T20:55:42.033Z,22.00
2022-12-05T21:00:50.769Z,24.50
2022-12-05T21:05:41.750Z,23.00
2022-12-05T21:10:41.770Z,21.70
2022-12-05T21:15:41.926Z,22.80
2022-12-05T21:20:42.454Z,21.80
2022-12-05T21:25:41.659Z,21.80
2022-12-05T21:30:42.674Z,24.90
2022-12-05T21:35:42.531Z,26.30
2022-12-05T21:40:41.593Z,23.50
2022-12-05T21:45:43.760Z,21.10
2022-12-05T21:50:41.291Z,23.00
2022-12-05T21:55:41.352Z,22.00
2022-12-05T22:00:42.330Z,21.20
2022-12-05T22:05:41.317Z,18.60
2022-12-05T22:10:41.247Z,21.00
2022-12-05T22:15:41.185Z,17.80
2022-12-05T22:20:41.238Z,20.30
2022-12-05T22:25:42.275Z,19.70
2022-12-05T22:30:41.946Z,21.70
2022-12-05T22:35:41.862Z,20.60
2022-12-05T22:40:40.835Z,19.00
2022-12-05T22:45:40.790Z,23.90
2022-12-05T22:50:40.695Z,23.50
2022-12-05T22:55:40.681Z,22.40
2022-12-05T23:00:41.600Z,20.80
2022-12-05T23:05:40.514Z,19.50
2022-12-05T23:10:40.592Z,18.10
2022-12-05T23:15:40.572Z,24.70
2022-12-05T23:20:40.450Z,23.20
2022-12-05T23:25:40.426Z,19.80
2022-12-05T23:30:40.320Z,25.30
2022-12-05T23:35:40.165Z,25.30
2022-12-05T23:40:40.065Z,31.50
2022-12-05T23:45:40.064Z,27.30
2022-12-05T23:50:40.028Z,24.60
2022-12-05T23:55:40.033Z,27.30
